Detall de PIREP

Printer-friendly versionPDF version

[2012/10/27 15:12:00]
Flight IATA:CT1001
Pilot Number:026
Company ICAO:CAT
Aircraft Type:F50/A
PAX:50
Aircraft Registration:DREAMWINGS
Departing Airport: LEIB
Destination Airport: LEPA
Alternate Airport:LEMH
Online: VATSIM
Route:IZA
Flight Level:F080
No Slew and time accel
No pause
Crash detect
Detect pilot in Cockpit between each 30 and 45 minutes
15:12 Zero fuel Weight: 38477 Lbs, Fuel Weight: 2248 Lbs
15:12 VATSIM:LEIB 271430Z 28014KT 250V310 9999 FEW040 23/09 Q0998 NOSIG
15:12 VATSIM:LEPA 271430Z 32014KT 290V350 9999 FEW035TCU SCT050 21/13 Q0997 NOSIG
15:12 VOICE CATALONIAN / MEDITERRANEAN ODYSSEY LEG7
15:22 Parking Brakes off
15:28 Take-off
15:28 Take off Weight: 40624 Lbs
15:28 Wind: 281º @ 014 Knots Heading: 244º
15:28 POS N38º 52´ 20´´ E001º 22´ 16´´
15:28 Flaps:2 at 123 Knots
15:29 Gear Up: 127 Knots
15:29 Flaps:1 at 135 Knots
15:30 Flaps:0 at 137 Knots
15:34 TOC
15:34 Fuel Weight: 1925 Lb
15:43 Wind:318º@026 Knots Heading: 038º Ground Speed: 222 Knots Altitude 7591 ft
15:53 TOD
15:53 Fuel Weight: 1406 Lb
15:58 Wind:310º@022 Knots Heading: 058º Ground Speed: 216 Knots Altitude 2857 ft
16:05 Gear Down: 166 Knots
16:05 Flaps:1 at 164 Knots
16:07 Flaps:2 at 134 Knots
16:07 Flaps:3 at 129 Knots
16:07 Flaps:4 at 120 Knots
16:07 TouchDown:Rate -235 ft/min Speed: 106 Knots
16:08 VATSIM:LEPA 271530Z 31013KT 280V340 9999 FEW035TCU SCT050 21/12 Q0997 NOSIG
16:08 Land
16:08 Wind:314º@013 Knots
16:08 Heading: 236º
16:08 Flight Duration: 00:40
16:08 Landing Weight: 39641 Lbs
16:08 POS N39º 32´ 53´´ E002º 44´ 46´´
16:17 Parking brakes on
16:17 Block to Block Duration: 00:55
16:17 Final Fuel: 1078 Lbls
16:17 Spent Fuel: 1170 Lbls
16:17 Flight Length: 133 NM
16:17 TOD Land Length: 45 NM

Exportar CSV

Powered by Drupal - Modified by Danger4k